メインページ
METAR-TAF:

METAR-TAF

空港 :

チャーチル, マニトバ州, カナダ

緯度: 58-44N, 経度: 094-04W, 海抜: 28m

現時点の気象観測

当レポートは26分前の12:00(UTC)に作成
西/北西の風 4kt
気温 -19°C
湿度 84%
気圧 1024 hPa
視程: 24.1km
高度1100ftの曇り
小雪

METAR: CYYQ 141200Z 29004KT 15SM -SN OVC011 M19/M21 A3024 RMK SC8 SLP245

時間: 06:26 (12:26 UTC)

予報

当レポートは48分前の11:38(UTC)に作成
予報は14日の 12時(UTC)から 15日の 12時(UTC)まで有効
西/北西の風 12kt、最大22ktの突風を伴う
視程: 10km
高度1500ftの千切れ雲あり
小雪
14日の 2300時(UTC)から
の風 5kt
視程: 10km
高度1500ftの千切れ雲あり
高度10000ftの千切れ雲あり
14日の 23時(UTC)から 15日の 06時(UTC)まで一時的に
視程: 3.2km
小雪
15日の 02時(UTC)から 15日の 04時(UTC)まで徐々に
変向風 3kt
15日の 0600時(UTC)から
変向風 3kt
視程: 10km
高度1500ftの千切れ雲あり
小雪

TAF: CYYQ 141138Z 1412/1512 30012G22KT P6SM -SN BKN015 FM142300 35005KT P6SM BKN015 BKN100 TEMPO 1423/1506 2SM -SN BECMG 1502/1504 VRB03KT FM150600 VRB03KT P6SM -SN BKN015 RMK NXT FCST BY 141800Z

4,000以上の空港の気象観測と天気予報(METAR報とTAF報)

利用可能な観測所は地図上に黄色い丸と赤い丸で示す。

丸の上にカーソルを重ねると観測所名を参照できる。

次にクリックすると気象観測と天気予報を参照できる。

マップの切り替え:黒色「×」印の緑ボタンをクリックして拡大、「-」印の緑ボタンをクリックして縮小、緑色の三角印をクリックして隣りの地図に切り替え


METAR-TAF: